Portada
METAR-TAF:

METAR-TAF

Aeroports :

Nakhon Si Thammarat, Tailàndia

latitud: 8-32-22N, longitud: 99-56-41E, altitud: 4 m

Observació

L'informe es va fer fa 8 hores i 42 minuts, a les 13:00 UTC
Vent calma
Temperatura 28°C
Humitat 94%
Pressió 1011 hPa
Visibilitat 10 km o més
Escasses núvols a una alçada de 1800 ft

METAR: VTSF 261300Z 00000KT 9999 FEW018 28/27 Q1011 NOSIG

Hora: 04:42 (21:42 UTC)

Pronòstic

L'informe es va fer fa 4 hores i 42 minuts, a les 17:00 UTC
Pronòstic vàlid del 26 a les 18 UTC al 27 a les 18 UTC
Vent 5 kt del Sud-Oest
Visibilitat 10 km o més
Escasses núvols a una alçada de 2000 ft

TAF: VTSF 261700Z 2618/2718 22005KT 9999 FEW020

Observacions i pronòstics meteorològics de més de 4000 aeroports (METAR i TAF).

Les estacions disponibles són els punts grocs i vermells al mapa.

Posi el ratolí al punt desitjat per veure el nom de l'estació.

Feu clic per veure les observacions i els pronòstics meteorològics.

Per canviar el mapa: feu clic els botons verds amb una creu de color negre per apropar; al botó verd amb un guió per allunyar la imatge; o en les fletxes verdes per a mapes adjacents.


METAR-TAF: